createdAt,value
2024-05-09T00:00:52.882Z,19.05
2024-05-09T00:03:23.995Z,18.60
2024-05-09T00:05:54.569Z,17.73
2024-05-09T00:08:26.100Z,18.65
2024-05-09T00:10:56.856Z,18.35
2024-05-09T00:13:27.969Z,17.88
2024-05-09T00:15:58.846Z,19.30
2024-05-09T00:18:30.140Z,18.48
2024-05-09T00:21:01.468Z,18.00
2024-05-09T00:23:32.799Z,18.05
2024-05-09T00:26:03.543Z,16.75
2024-05-09T00:28:34.402Z,17.95
2024-05-09T00:31:05.717Z,16.85
2024-05-09T00:33:36.848Z,17.42
2024-05-09T00:36:08.894Z,17.15
2024-05-09T00:38:39.773Z,16.55
2024-05-09T00:41:10.647Z,17.30
2024-05-09T00:43:42.492Z,16.65
2024-05-09T00:46:13.326Z,16.45
2024-05-09T00:48:44.617Z,17.70
2024-05-09T00:51:15.505Z,17.83
2024-05-09T00:53:47.736Z,15.95
2024-05-09T00:56:20.700Z,15.43
2024-05-09T00:58:53.574Z,16.67
2024-05-09T01:01:25.928Z,17.35
2024-05-09T01:03:57.397Z,17.13
2024-05-09T01:06:28.210Z,16.10
2024-05-09T01:08:59.379Z,16.42
2024-05-09T01:11:39.493Z,15.35
2024-05-09T01:14:10.683Z,15.35
2024-05-09T01:16:41.778Z,15.82
2024-05-09T01:19:25.360Z,15.55
2024-05-09T01:21:56.419Z,15.38
2024-05-09T01:24:27.359Z,15.88
2024-05-09T01:26:58.288Z,15.90
2024-05-09T01:29:29.241Z,15.90
2024-05-09T01:32:01.443Z,15.23
2024-05-09T01:34:32.776Z,16.63
2024-05-09T01:37:03.749Z,16.35
2024-05-09T01:39:34.577Z,15.40
2024-05-09T01:42:05.598Z,17.27
2024-05-09T01:44:36.732Z,16.17
2024-05-09T01:47:07.585Z,15.10
2024-05-09T01:49:39.605Z,15.00
2024-05-09T01:52:10.435Z,15.93
2024-05-09T01:54:41.965Z,15.88
2024-05-09T01:57:12.906Z,15.13
2024-05-09T01:59:43.753Z,15.05
2024-05-09T02:02:15.586Z,14.98
2024-05-09T02:04:49.750Z,14.35
2024-05-09T02:07:20.724Z,15.27
2024-05-09T02:09:55.197Z,15.05
2024-05-09T02:12:25.954Z,14.10
2024-05-09T02:14:57.276Z,15.00
2024-05-09T02:17:31.075Z,14.05
2024-05-09T02:20:02.738Z,13.15
2024-05-09T02:22:33.425Z,12.65
2024-05-09T02:25:04.589Z,13.35
2024-05-09T02:27:35.197Z,13.07
2024-05-09T02:30:15.130Z,14.02
2024-05-09T02:32:53.435Z,13.18
2024-05-09T02:35:24.813Z,13.75
2024-05-09T02:37:55.599Z,12.02
2024-05-09T02:40:35.497Z,12.55
2024-05-09T02:43:11.177Z,13.18
2024-05-09T02:45:43.678Z,12.20
2024-05-09T02:48:14.854Z,12.43
2024-05-09T02:50:46.345Z,12.60
2024-05-09T02:53:17.497Z,12.80
2024-05-09T02:55:49.040Z,12.38
2024-05-09T02:58:19.676Z,13.32
2024-05-09T03:00:51.498Z,12.52
2024-05-09T03:03:22.534Z,13.18
2024-05-09T03:05:53.949Z,13.57
2024-05-09T03:08:25.056Z,13.27
2024-05-09T03:10:56.248Z,14.38
2024-05-09T03:13:26.774Z,13.15
2024-05-09T03:15:57.883Z,13.48
2024-05-09T03:18:28.855Z,12.68
2024-05-09T03:20:59.788Z,13.65
2024-05-09T03:23:30.669Z,13.48
2024-05-09T03:26:01.729Z,13.60
2024-05-09T03:28:32.570Z,14.15
2024-05-09T03:31:03.341Z,14.75
2024-05-09T03:33:34.564Z,14.80
2024-05-09T03:36:09.762Z,15.45
2024-05-09T03:38:42.561Z,13.70
2024-05-09T03:41:14.735Z,14.55
2024-05-09T03:43:46.940Z,13.88
2024-05-09T03:46:17.735Z,12.85
2024-05-09T03:48:49.296Z,12.50
2024-05-09T03:51:20.063Z,13.40
2024-05-09T03:53:51.144Z,13.10
2024-05-09T03:56:22.088Z,12.80
2024-05-09T03:58:53.462Z,12.93
2024-05-09T04:01:27.151Z,13.55
2024-05-09T04:03:58.849Z,13.55
2024-05-09T04:06:29.705Z,15.23
2024-05-09T04:09:00.752Z,12.57
2024-05-09T04:11:31.819Z,14.27
2024-05-09T04:14:03.348Z,13.55
2024-05-09T04:16:34.166Z,11.98
2024-05-09T04:19:05.525Z,13.68
2024-05-09T04:21:36.377Z,14.48
2024-05-09T04:24:07.696Z,13.50
2024-05-09T04:26:38.545Z,12.82
2024-05-09T04:29:09.770Z,12.88
2024-05-09T04:31:40.775Z,13.32
2024-05-09T04:34:12.341Z,13.77
2024-05-09T04:36:44.480Z,12.65
2024-05-09T04:39:16.016Z,12.65
2024-05-09T04:41:46.800Z,12.45
2024-05-09T04:44:17.886Z,13.23
2024-05-09T04:46:51.008Z,13.45
2024-05-09T04:49:24.923Z,13.07
2024-05-09T04:51:55.969Z,13.82
2024-05-09T04:54:34.206Z,13.65
2024-05-09T04:57:07.430Z,14.27
2024-05-09T04:59:38.545Z,12.88
2024-05-09T05:02:10.287Z,13.00
2024-05-09T05:04:41.339Z,12.73
2024-05-09T05:07:12.916Z,12.90
2024-05-09T05:09:43.749Z,12.23
2024-05-09T05:12:33.120Z,12.15
2024-05-09T05:15:04.011Z,11.95
2024-05-09T05:17:35.982Z,12.35
2024-05-09T05:20:08.551Z,12.75
2024-05-09T05:22:39.767Z,11.82
2024-05-09T05:25:10.602Z,12.60
2024-05-09T05:27:42.337Z,12.10
2024-05-09T05:30:21.040Z,11.98
2024-05-09T05:32:56.582Z,13.07
2024-05-09T05:35:28.580Z,12.05
2024-05-09T05:38:00.068Z,12.95
2024-05-09T05:40:36.777Z,12.32
2024-05-09T05:43:12.947Z,13.50
2024-05-09T05:45:44.177Z,13.40
2024-05-09T05:48:19.466Z,12.88
2024-05-09T05:50:50.675Z,12.20
2024-05-09T05:53:21.740Z,11.80
2024-05-09T05:55:53.759Z,11.93
2024-05-09T05:58:25.027Z,12.23
2024-05-09T06:00:56.154Z,12.60
2024-05-09T06:03:28.025Z,12.90
2024-05-09T06:05:59.089Z,13.35
2024-05-09T06:08:30.700Z,11.50
2024-05-09T06:11:02.002Z,12.45
2024-05-09T06:13:33.117Z,13.02
2024-05-09T06:16:06.544Z,13.38
2024-05-09T06:18:37.840Z,13.95
2024-05-09T06:21:09.412Z,13.70
2024-05-09T06:23:51.165Z,14.15
2024-05-09T06:26:22.184Z,12.63
2024-05-09T06:28:53.695Z,12.68
2024-05-09T06:31:24.481Z,12.65
2024-05-09T06:33:56.247Z,13.40
2024-05-09T06:36:27.147Z,13.90
2024-05-09T06:38:58.518Z,13.57
2024-05-09T06:41:33.246Z,13.27
2024-05-09T06:44:06.223Z,13.43
2024-05-09T06:46:42.026Z,12.68
2024-05-09T06:49:15.599Z,13.50
2024-05-09T06:51:47.744Z,13.77
2024-05-09T06:54:20.752Z,15.63
2024-05-09T06:56:51.537Z,14.30
2024-05-09T06:59:22.798Z,14.02
2024-05-09T07:01:54.655Z,13.38
2024-05-09T07:04:26.678Z,15.07
2024-05-09T07:06:58.256Z,14.20
2024-05-09T07:09:29.894Z,15.50
2024-05-09T07:12:01.451Z,14.77
2024-05-09T07:14:33.949Z,14.18
2024-05-09T07:17:05.909Z,13.68
2024-05-09T07:19:37.174Z,13.98
2024-05-09T07:22:08.281Z,14.05
2024-05-09T07:24:40.433Z,13.50
2024-05-09T07:27:15.484Z,15.05
2024-05-09T07:29:46.539Z,14.02
2024-05-09T07:32:17.771Z,13.82
2024-05-09T07:34:48.846Z,13.88
2024-05-09T07:37:19.963Z,13.30
2024-05-09T07:39:50.732Z,14.07
2024-05-09T07:42:21.903Z,14.65
2024-05-09T07:44:52.994Z,12.73
2024-05-09T07:48:49.069Z,11.95
2024-05-09T07:53:34.824Z,14.02
2024-05-09T07:55:40.849Z,12.85
2024-05-09T07:58:12.648Z,12.88
2024-05-09T08:00:43.853Z,13.43
2024-05-09T08:03:15.450Z,13.35
2024-05-09T08:05:46.737Z,12.50
2024-05-09T08:08:17.824Z,13.00
2024-05-09T08:10:48.885Z,13.35
2024-05-09T08:13:20.526Z,12.57
2024-05-09T08:15:56.388Z,13.13
2024-05-09T08:18:27.945Z,11.75
2024-05-09T08:21:03.219Z,12.50
2024-05-09T08:23:34.487Z,12.15
2024-05-09T08:26:05.275Z,12.15
2024-05-09T08:28:38.638Z,11.88
2024-05-09T08:31:09.507Z,12.48
2024-05-09T08:33:49.994Z,11.88
2024-05-09T08:36:21.834Z,12.88
2024-05-09T08:38:53.088Z,11.10
2024-05-09T08:41:24.306Z,11.32
2024-05-09T08:44:06.421Z,11.68
2024-05-09T08:46:39.180Z,10.82
2024-05-09T08:49:10.550Z,11.00
2024-05-09T08:51:41.608Z,11.90
2024-05-09T08:54:13.014Z,11.63
2024-05-09T08:56:50.384Z,11.05
2024-05-09T08:59:30.750Z,10.68
2024-05-09T09:02:02.100Z,10.98
2024-05-09T09:04:38.097Z,10.48
2024-05-09T09:07:09.977Z,9.98
2024-05-09T09:09:48.087Z,10.47
2024-05-09T09:12:19.460Z,11.32
2024-05-09T09:14:50.771Z,10.18
2024-05-09T09:17:21.771Z,10.43
2024-05-09T09:19:53.519Z,9.68
2024-05-09T09:22:24.275Z,10.75
2024-05-09T09:24:55.445Z,10.68
2024-05-09T09:27:26.533Z,10.60
2024-05-09T09:30:00.122Z,9.60
2024-05-09T09:32:31.761Z,11.00
2024-05-09T09:35:03.261Z,10.32
2024-05-09T09:37:36.627Z,10.20
2024-05-09T09:40:13.326Z,11.23
2024-05-09T09:42:46.307Z,11.02
2024-05-09T09:45:18.924Z,11.43
2024-05-09T09:47:51.200Z,10.95
2024-05-09T09:50:27.970Z,10.80
2024-05-09T09:53:07.191Z,10.73
2024-05-09T09:55:39.869Z,11.07
2024-05-09T09:58:14.304Z,11.65
2024-05-09T10:00:49.206Z,11.13
2024-05-09T10:03:20.253Z,9.93
2024-05-09T10:05:52.541Z,11.20
2024-05-09T10:08:26.205Z,10.90
2024-05-09T10:10:59.282Z,10.23
2024-05-09T10:16:12.295Z,10.50
2024-05-09T10:18:43.760Z,10.75
2024-05-09T10:21:20.491Z,9.95
2024-05-09T10:24:08.783Z,10.80
2024-05-09T10:26:41.406Z,10.95
2024-05-09T10:29:20.343Z,10.60
2024-05-09T10:31:51.380Z,10.27
2024-05-09T10:34:26.694Z,10.77
2024-05-09T10:36:58.893Z,10.55
2024-05-09T10:39:36.961Z,9.98
2024-05-09T10:42:12.850Z,9.98
2024-05-09T10:44:45.539Z,10.60
2024-05-09T10:47:17.839Z,9.80
2024-05-09T10:49:49.260Z,10.98
2024-05-09T10:52:26.799Z,10.75
2024-05-09T10:54:58.238Z,10.23
2024-05-09T10:57:40.041Z,9.88
2024-05-09T11:00:18.958Z,10.02
2024-05-09T11:02:55.828Z,9.90
2024-05-09T11:05:27.315Z,9.20
2024-05-09T11:07:58.659Z,9.18
2024-05-09T11:10:34.057Z,9.20
2024-05-09T11:13:05.861Z,9.25
2024-05-09T11:15:44.347Z,9.93
2024-05-09T11:18:30.631Z,8.75
2024-05-09T11:21:18.755Z,9.07
2024-05-09T11:23:56.046Z,9.45
2024-05-09T11:26:37.622Z,9.77
2024-05-09T11:29:09.134Z,10.55
2024-05-09T11:31:50.114Z,9.70
2024-05-09T11:34:21.781Z,10.40
2024-05-09T11:36:52.974Z,9.80
2024-05-09T11:39:24.535Z,9.95
2024-05-09T11:41:55.536Z,9.80
2024-05-09T11:44:27.155Z,9.80
2024-05-09T11:46:58.601Z,9.05
2024-05-09T11:49:30.298Z,9.95
2024-05-09T11:52:01.388Z,10.00
2024-05-09T11:54:33.538Z,9.85
2024-05-09T11:57:05.159Z,9.98
2024-05-09T11:59:37.259Z,9.73
2024-05-09T12:02:08.826Z,9.82
2024-05-09T12:04:41.040Z,9.93
2024-05-09T12:07:13.322Z,9.93
2024-05-09T12:09:45.125Z,10.63
2024-05-09T12:12:16.737Z,9.90
2024-05-09T12:14:47.942Z,10.30
2024-05-09T12:17:18.877Z,10.35
2024-05-09T12:19:50.440Z,10.68
2024-05-09T12:22:24.924Z,10.73
2024-05-09T12:24:56.278Z,10.15
2024-05-09T12:27:28.443Z,11.02
2024-05-09T12:30:00.807Z,10.25
2024-05-09T12:32:32.810Z,12.10
2024-05-09T12:35:03.800Z,10.90
2024-05-09T12:37:35.901Z,11.25
2024-05-09T12:40:15.816Z,11.60
2024-05-09T12:42:52.127Z,10.45
2024-05-09T12:45:23.693Z,10.70
2024-05-09T12:47:54.732Z,10.30
2024-05-09T12:50:32.471Z,10.45
2024-05-09T12:53:05.508Z,11.75
2024-05-09T12:55:48.373Z,11.55
2024-05-09T12:58:25.192Z,10.93
2024-05-09T13:00:56.685Z,11.15
2024-05-09T13:03:29.228Z,11.57
2024-05-09T13:06:00.789Z,10.57
2024-05-09T13:08:31.727Z,11.50
2024-05-09T13:11:03.845Z,11.90
2024-05-09T13:13:35.507Z,12.32
2024-05-09T13:16:07.089Z,10.98
2024-05-09T13:18:38.640Z,12.10
2024-05-09T13:21:09.847Z,13.05
2024-05-09T13:23:42.454Z,12.38
2024-05-09T13:28:45.056Z,11.88
2024-05-09T13:31:16.718Z,11.90
2024-05-09T13:33:48.961Z,11.55
2024-05-09T13:36:20.817Z,12.05
2024-05-09T13:38:52.161Z,11.75
2024-05-09T13:41:27.937Z,11.68
2024-05-09T13:43:59.121Z,12.93
2024-05-09T13:46:30.905Z,13.48
2024-05-09T13:49:02.357Z,13.05
2024-05-09T13:51:33.809Z,11.98
2024-05-09T13:54:04.856Z,12.77
2024-05-09T13:56:39.669Z,12.88
2024-05-09T13:59:11.808Z,13.63
2024-05-09T14:01:43.568Z,13.50
2024-05-09T14:04:18.438Z,14.38
2024-05-09T14:06:53.761Z,15.80
2024-05-09T14:09:31.869Z,16.58
2024-05-09T14:12:09.729Z,15.65
2024-05-09T14:14:42.516Z,17.17
2024-05-09T14:17:15.176Z,16.48
2024-05-09T14:19:47.398Z,17.95
2024-05-09T14:22:18.859Z,17.85
2024-05-09T14:24:51.327Z,19.98
2024-05-09T14:27:22.843Z,21.02
2024-05-09T14:29:54.289Z,22.83
2024-05-09T14:32:25.908Z,23.50
2024-05-09T14:35:00.928Z,22.98
2024-05-09T14:37:32.055Z,22.23
2024-05-09T14:40:06.893Z,22.75
2024-05-09T14:42:40.050Z,23.40
2024-05-09T14:47:46.301Z,22.33
2024-05-09T14:50:27.378Z,22.10
2024-05-09T14:53:05.352Z,22.35
2024-05-09T14:55:38.446Z,20.83
2024-05-09T14:58:16.766Z,20.20
2024-05-09T15:00:51.182Z,21.98
2024-05-09T15:03:30.628Z,22.40
2024-05-09T15:06:03.363Z,20.85
2024-05-09T15:08:34.711Z,21.52
2024-05-09T15:11:10.846Z,20.42
2024-05-09T15:13:43.314Z,21.55
2024-05-09T15:16:20.234Z,24.43
2024-05-09T15:18:52.794Z,23.00
2024-05-09T15:21:24.285Z,22.30
2024-05-09T15:23:55.610Z,21.38
2024-05-09T15:26:28.063Z,18.90
2024-05-09T15:28:59.889Z,18.83
2024-05-09T15:31:34.409Z,17.73
2024-05-09T15:34:05.939Z,18.65
2024-05-09T15:36:41.159Z,17.10
2024-05-09T15:39:19.432Z,18.60
2024-05-09T15:41:50.594Z,16.85
2024-05-09T15:44:22.202Z,16.60
2024-05-09T15:46:57.367Z,18.02
2024-05-09T15:49:28.618Z,16.90
2024-05-09T15:52:01.194Z,17.52
2024-05-09T15:54:32.386Z,18.15
2024-05-09T15:57:04.119Z,16.90
2024-05-09T15:59:35.805Z,17.15
2024-05-09T16:02:08.074Z,16.70
2024-05-09T16:04:39.985Z,17.30
2024-05-09T16:07:11.979Z,16.33
2024-05-09T16:09:43.305Z,15.82
2024-05-09T16:12:15.021Z,17.10
2024-05-09T16:14:48.632Z,16.08
2024-05-09T16:17:22.631Z,17.40
2024-05-09T16:22:25.159Z,18.50
2024-05-09T16:24:56.249Z,17.50
2024-05-09T16:27:30.047Z,17.63
2024-05-09T16:30:07.276Z,19.10
2024-05-09T16:32:45.966Z,17.40
2024-05-09T16:35:17.669Z,20.10
2024-05-09T16:37:49.743Z,18.80
2024-05-09T16:40:30.378Z,19.85
2024-05-09T16:43:09.190Z,20.88
2024-05-09T16:45:43.048Z,19.52
2024-05-09T16:50:46.929Z,21.17
2024-05-09T16:53:19.371Z,19.60
2024-05-09T16:55:50.730Z,20.23
2024-05-09T16:58:22.158Z,19.13
2024-05-09T17:00:53.406Z,20.25
2024-05-09T17:03:25.638Z,19.92
2024-05-09T17:05:56.919Z,20.23
2024-05-09T17:08:28.123Z,18.90
2024-05-09T17:11:02.850Z,17.60
2024-05-09T17:13:34.353Z,18.50
2024-05-09T17:16:05.910Z,18.73
2024-05-09T17:18:39.170Z,18.63
2024-05-09T17:21:10.470Z,19.63
2024-05-09T17:23:42.337Z,18.80
2024-05-09T17:26:13.793Z,17.15
2024-05-09T17:28:46.000Z,19.13
2024-05-09T17:31:17.050Z,18.85
2024-05-09T17:33:51.871Z,18.15
2024-05-09T17:36:24.885Z,18.00
2024-05-09T17:38:56.759Z,17.70
2024-05-09T17:41:28.220Z,18.00
2024-05-09T17:43:59.401Z,18.08
2024-05-09T17:46:30.786Z,17.90
2024-05-09T17:49:02.575Z,16.35
2024-05-09T17:51:39.999Z,16.60
2024-05-09T17:54:14.534Z,16.23
2024-05-09T17:56:46.071Z,16.58
2024-05-09T17:59:17.471Z,16.25
2024-05-09T18:01:48.751Z,16.73
2024-05-09T18:04:21.128Z,16.20
2024-05-09T18:06:52.216Z,15.20
2024-05-09T18:09:23.575Z,15.93
2024-05-09T18:11:54.598Z,17.58
2024-05-09T18:14:25.703Z,17.13
2024-05-09T18:16:56.624Z,16.58
2024-05-09T18:19:27.863Z,15.63
2024-05-09T18:21:59.008Z,15.05
2024-05-09T18:24:31.495Z,14.57
2024-05-09T18:27:02.216Z,14.00
2024-05-09T18:29:34.195Z,14.43
2024-05-09T18:32:05.040Z,13.70
2024-05-09T18:34:36.231Z,14.40
2024-05-09T18:37:07.441Z,14.57
2024-05-09T18:39:38.637Z,15.20
2024-05-09T18:42:10.296Z,15.65
2024-05-09T18:44:41.049Z,15.35
2024-05-09T18:47:12.944Z,15.60
2024-05-09T18:49:44.683Z,15.90
2024-05-09T18:52:16.116Z,16.42
2024-05-09T18:54:46.970Z,16.33
2024-05-09T18:57:17.537Z,17.67
2024-05-09T18:59:48.333Z,16.20
2024-05-09T19:02:19.479Z,15.60
2024-05-09T19:04:54.652Z,15.43
2024-05-09T19:07:25.745Z,16.95
2024-05-09T19:09:56.610Z,16.00
2024-05-09T19:12:27.443Z,16.00
2024-05-09T19:14:58.310Z,16.33
2024-05-09T19:17:31.363Z,16.52
2024-05-09T19:20:02.829Z,16.55
2024-05-09T19:22:34.134Z,16.10
2024-05-09T19:25:05.282Z,16.33
2024-05-09T19:27:36.057Z,17.55
2024-05-09T19:30:17.392Z,16.73
2024-05-09T19:32:55.192Z,16.88
2024-05-09T19:35:26.796Z,16.58
2024-05-09T19:37:57.532Z,16.73
2024-05-09T19:40:32.078Z,16.65
2024-05-09T19:43:05.956Z,16.02
2024-05-09T19:45:37.668Z,17.83
2024-05-09T19:48:09.133Z,16.90
2024-05-09T19:50:43.615Z,17.35
2024-05-09T19:53:15.963Z,16.90
2024-05-09T19:55:46.845Z,17.63
2024-05-09T19:58:17.940Z,16.98
2024-05-09T20:00:49.543Z,17.70
2024-05-09T20:03:20.855Z,16.52
2024-05-09T20:05:51.712Z,16.92
2024-05-09T20:08:22.473Z,17.15
2024-05-09T20:10:53.436Z,17.73
2024-05-09T20:13:24.557Z,17.88
2024-05-09T20:15:55.485Z,16.92
2024-05-09T20:18:26.477Z,16.27
2024-05-09T20:20:57.868Z,16.48
2024-05-09T20:23:28.756Z,16.67
2024-05-09T20:26:00.267Z,16.95
2024-05-09T20:28:31.744Z,17.38
2024-05-09T20:31:04.811Z,16.35
2024-05-09T20:33:35.442Z,16.27
2024-05-09T20:36:07.719Z,15.85
2024-05-09T20:38:38.288Z,15.43
2024-05-09T20:41:09.137Z,16.60
2024-05-09T20:43:39.915Z,16.13
2024-05-09T20:46:11.062Z,16.85
2024-05-09T20:48:42.113Z,16.17
2024-05-09T20:51:13.152Z,15.77
2024-05-09T20:53:44.156Z,15.50
2024-05-09T20:56:14.723Z,15.35
2024-05-09T20:58:49.286Z,16.75
2024-05-09T21:01:21.675Z,16.08
2024-05-09T21:03:52.835Z,15.77
2024-05-09T21:06:23.877Z,16.08
2024-05-09T21:08:55.664Z,15.05
2024-05-09T21:11:26.664Z,15.07
2024-05-09T21:13:57.580Z,15.15
2024-05-09T21:16:28.343Z,15.77
2024-05-09T21:18:59.572Z,14.77
2024-05-09T21:21:30.141Z,14.07
2024-05-09T21:24:01.746Z,15.32
2024-05-09T21:26:32.310Z,15.27
2024-05-09T21:29:03.111Z,14.73
2024-05-09T21:31:34.079Z,14.77
2024-05-09T21:34:05.076Z,14.20
2024-05-09T21:36:35.774Z,14.85
2024-05-09T21:39:06.566Z,14.90
2024-05-09T21:41:37.290Z,15.13
2024-05-09T21:44:08.519Z,15.15
2024-05-09T21:46:39.490Z,14.27
2024-05-09T21:49:10.391Z,15.32
2024-05-09T21:51:41.314Z,14.40
2024-05-09T21:54:12.263Z,15.65
2024-05-09T21:56:43.207Z,14.77
2024-05-09T21:59:13.646Z,14.45
2024-05-09T22:01:44.532Z,14.93
2024-05-09T22:04:15.514Z,15.93
2024-05-09T22:06:46.575Z,15.32
2024-05-09T22:09:17.867Z,14.82
2024-05-09T22:11:51.418Z,15.40
2024-05-09T22:14:23.349Z,14.90
2024-05-09T22:16:54.214Z,15.02
2024-05-09T22:19:25.117Z,15.00
2024-05-09T22:21:56.928Z,15.50
2024-05-09T22:24:27.676Z,15.05
2024-05-09T22:26:58.726Z,14.93
2024-05-09T22:29:29.373Z,14.23
2024-05-09T22:32:00.277Z,15.43
2024-05-09T22:34:31.318Z,15.05
2024-05-09T22:37:02.370Z,15.55
2024-05-09T22:39:33.499Z,14.38
2024-05-09T22:42:04.202Z,15.27
2024-05-09T22:44:35.613Z,14.68
2024-05-09T22:47:07.010Z,13.52
2024-05-09T22:49:37.847Z,14.60
2024-05-09T22:52:09.497Z,15.15
2024-05-09T22:54:40.289Z,13.70
2024-05-09T22:57:11.725Z,14.52
2024-05-09T22:59:42.488Z,14.30
2024-05-09T23:02:13.544Z,14.80
2024-05-09T23:04:44.529Z,13.80
2024-05-09T23:07:15.590Z,14.50
2024-05-09T23:09:50.097Z,15.60
2024-05-09T23:12:21.015Z,14.65
2024-05-09T23:14:51.831Z,15.57
2024-05-09T23:17:22.800Z,15.02
2024-05-09T23:19:53.652Z,15.07
2024-05-09T23:22:24.741Z,15.68
2024-05-09T23:24:55.840Z,14.55
2024-05-09T23:27:27.707Z,14.50
2024-05-09T23:29:58.903Z,14.85
2024-05-09T23:32:30.000Z,14.80
2024-05-09T23:35:01.742Z,13.52
2024-05-09T23:37:32.745Z,14.32
2024-05-09T23:40:06.891Z,14.65
2024-05-09T23:42:38.050Z,14.13
2024-05-09T23:45:09.715Z,14.00
2024-05-09T23:47:40.817Z,13.15
2024-05-09T23:50:16.918Z,14.95
2024-05-09T23:52:54.431Z,14.77
2024-05-09T23:55:25.566Z,15.52
2024-05-09T23:57:56.479Z,14.82
